createdAt,value
2022-11-29T00:01:15.498Z,8.7
2022-11-29T00:06:15.556Z,8.6
2022-11-29T00:12:05.186Z,8.7
2022-11-29T00:17:05.257Z,8.8
2022-11-29T00:22:15.493Z,8.8
2022-11-29T00:27:15.481Z,8.8
2022-11-29T00:32:15.536Z,8.9
2022-11-29T00:38:05.259Z,8.8
2022-11-29T00:43:15.497Z,8.6
2022-11-29T00:49:05.241Z,8.6
2022-11-29T00:54:15.503Z,8.9
2022-11-29T01:00:05.202Z,8.8
2022-11-29T01:05:05.212Z,8.7
2022-11-29T01:10:05.269Z,8.6
2022-11-29T01:15:15.521Z,8.5
2022-11-29T01:21:04.987Z,8.7
2022-11-29T01:26:05.039Z,8.6
2022-11-29T01:31:05.142Z,8.8
2022-11-29T01:36:05.092Z,8.7
2022-11-29T01:41:05.265Z,8.6
2022-11-29T01:46:15.524Z,8.7
2022-11-29T01:51:15.537Z,8.9
2022-11-29T01:57:05.265Z,8.4
2022-11-29T02:02:23.819Z,8.6
2022-11-29T02:08:05.268Z,8.5
2022-11-29T02:13:15.522Z,8.6
2022-11-29T02:19:05.220Z,8.8
2022-11-29T02:24:12.107Z,8.5
2022-11-29T02:29:15.491Z,8.4
2022-11-29T02:34:15.570Z,8.4
2022-11-29T02:40:05.210Z,8.4
2022-11-29T02:45:05.242Z,8.4
2022-11-29T02:50:15.568Z,8.5
2022-11-29T02:56:05.219Z,8.2
2022-11-29T03:01:15.330Z,8.3
2022-11-29T03:06:15.391Z,8.5
2022-11-29T03:12:05.226Z,8.5
2022-11-29T03:17:15.597Z,8.3
2022-11-29T03:23:05.091Z,8.5
2022-11-29T03:28:15.337Z,8.5
2022-11-29T03:33:15.338Z,8.5
2022-11-29T03:39:05.099Z,8.6
2022-11-29T03:44:15.322Z,8.8
2022-11-29T03:50:05.011Z,8.5
2022-11-29T03:55:05.055Z,8.5
2022-11-29T04:00:15.281Z,8.5
2022-11-29T04:05:15.325Z,8.3
2022-11-29T04:10:15.389Z,8.5
2022-11-29T04:16:05.062Z,8.4
2022-11-29T04:21:15.332Z,8.5
2022-11-29T04:27:05.136Z,8.4
2022-11-29T04:32:05.227Z,9
2022-11-29T04:37:05.225Z,8.4
2022-11-29T04:42:15.509Z,8.2
2022-11-29T04:47:15.556Z,8.2
2022-11-29T04:53:05.377Z,8.1
2022-11-29T04:58:15.520Z,8.7
2022-11-29T05:04:05.165Z,8.1
2022-11-29T05:09:05.205Z,8.3
2022-11-29T05:14:15.523Z,8.3
2022-11-29T05:19:15.515Z,8.3
2022-11-29T05:25:05.201Z,8.3
2022-11-29T05:30:05.306Z,8.3
2022-11-29T05:35:15.499Z,8.2
2022-11-29T05:40:15.493Z,8.3
2022-11-29T05:46:05.099Z,8.4
2022-11-29T05:51:05.110Z,8.6
2022-11-29T05:56:15.515Z,8.4
2022-11-29T06:02:05.125Z,8.4
2022-11-29T06:07:05.192Z,8.7
2022-11-29T06:12:05.208Z,9.1
2022-11-29T06:17:05.215Z,9.1
2022-11-29T06:22:15.288Z,8.8
2022-11-29T06:27:15.486Z,8.6
2022-11-29T06:32:15.499Z,8.7
2022-11-29T06:37:15.543Z,8.5
2022-11-29T06:43:05.234Z,8.7
2022-11-29T06:48:05.224Z,8.9
2022-11-29T06:53:05.264Z,8.9
2022-11-29T06:58:15.614Z,8.9
2022-11-29T07:03:15.774Z,9
2022-11-29T07:08:16.106Z,8.7
2022-11-29T07:14:05.218Z,8.9
2022-11-29T07:19:05.282Z,8.7
2022-11-29T07:24:15.414Z,8.7
2022-11-29T07:30:05.223Z,8.6
2022-11-29T07:35:15.284Z,8.8
2022-11-29T07:40:15.496Z,8.7
2022-11-29T07:46:05.232Z,8.8
2022-11-29T07:51:05.297Z,8.8
2022-11-29T07:56:15.518Z,9.1
2022-11-29T08:01:15.737Z,8.8
2022-11-29T08:07:05.200Z,8.8
2022-11-29T08:12:15.275Z,9.2
2022-11-29T08:17:15.552Z,9.1
2022-11-29T08:22:15.588Z,9.1
2022-11-29T08:28:05.250Z,9.1
2022-11-29T08:33:15.323Z,9.2
2022-11-29T08:38:15.468Z,8.9
2022-11-29T08:43:15.533Z,9
2022-11-29T08:49:05.422Z,9.3
2022-11-29T08:54:15.279Z,9
2022-11-29T08:59:16.126Z,9.2
2022-11-29T09:05:05.693Z,9.1
2022-11-29T09:10:15.514Z,9.2
2022-11-29T09:15:15.508Z,9.4
2022-11-29T09:21:05.258Z,9.3
2022-11-29T09:26:15.654Z,9.6
2022-11-29T09:32:05.203Z,9.6
2022-11-29T09:37:15.281Z,9.5
2022-11-29T09:42:15.307Z,9.8
2022-11-29T09:48:05.045Z,9.5
2022-11-29T09:53:15.310Z,9.6
2022-11-29T09:58:15.330Z,9.7
2022-11-29T10:04:04.994Z,9.8
2022-11-29T10:09:05.028Z,9.9
2022-11-29T10:14:15.513Z,10.1
2022-11-29T10:20:04.974Z,10
2022-11-29T10:25:05.035Z,10.1
2022-11-29T10:30:05.000Z,10.1
2022-11-29T10:35:05.079Z,9.6
2022-11-29T10:40:05.139Z,9.9
2022-11-29T10:45:12.368Z,10.1
2022-11-29T10:50:15.454Z,10.3
2022-11-29T10:55:15.481Z,10
2022-11-29T11:01:05.258Z,10.1
2022-11-29T11:06:05.219Z,10
2022-11-29T11:11:05.253Z,10.2
2022-11-29T11:16:15.337Z,10.2
2022-11-29T11:21:15.609Z,10
2022-11-29T11:27:05.056Z,9.8
2022-11-29T11:32:05.228Z,10.1
2022-11-29T11:37:05.244Z,9.8
2022-11-29T11:42:05.336Z,10
2022-11-29T11:47:15.379Z,10.1
2022-11-29T11:53:05.283Z,10.2
2022-11-29T11:58:15.268Z,10.3
2022-11-29T12:03:15.527Z,10.6
2022-11-29T12:08:15.749Z,9.9
2022-11-29T12:14:05.198Z,9.6
2022-11-29T12:19:05.244Z,9.6
2022-11-29T12:24:05.209Z,9.6
2022-11-29T12:29:15.513Z,9.6
2022-11-29T12:35:05.026Z,9.6
2022-11-29T12:40:05.241Z,9.9
2022-11-29T12:45:05.327Z,9.4
2022-11-29T12:50:15.712Z,9.2
2022-11-29T12:55:23.792Z,9.6
2022-11-29T13:01:05.197Z,9.6
2022-11-29T13:06:05.239Z,9.2
2022-11-29T13:11:15.481Z,9.2
2022-11-29T13:17:05.228Z,9.1
2022-11-29T13:22:05.302Z,9.3
2022-11-29T13:27:15.515Z,9.5
2022-11-29T13:33:05.294Z,9.7
2022-11-29T13:38:15.330Z,9.1
2022-11-29T13:43:15.478Z,9.4
2022-11-29T13:48:15.498Z,9.1
2022-11-29T13:54:05.229Z,8.9
2022-11-29T13:59:05.207Z,8.9
2022-11-29T14:04:05.233Z,8.7
2022-11-29T14:09:19.822Z,9.3
2022-11-29T14:15:05.375Z,8.9
2022-11-29T14:20:15.256Z,9
2022-11-29T14:25:35.274Z,9
2022-11-29T14:30:15.549Z,9.1
2022-11-29T14:36:15.264Z,9.1
2022-11-29T14:42:05.424Z,8.9
2022-11-29T14:47:15.452Z,9.3
2022-11-29T14:52:15.548Z,9.2
2022-11-29T14:58:05.251Z,8.6
2022-11-29T15:03:15.266Z,8.9
2022-11-29T15:08:15.446Z,8.8
2022-11-29T15:13:15.610Z,8.6
2022-11-29T15:18:15.496Z,8.7
2022-11-29T15:24:05.167Z,8.4
2022-11-29T15:29:05.201Z,8.6
2022-11-29T15:34:17.382Z,8.8
2022-11-29T15:39:15.489Z,8.6
2022-11-29T15:45:05.114Z,8.6
2022-11-29T15:50:15.862Z,8.6
2022-11-29T15:56:05.090Z,8.4
2022-11-29T16:01:24.631Z,8.3
2022-11-29T16:07:04.994Z,8.3
2022-11-29T16:12:15.196Z,8
2022-11-29T16:17:15.287Z,8.2
2022-11-29T16:23:04.997Z,8.5
2022-11-29T16:28:04.998Z,8.3
2022-11-29T16:33:15.316Z,8.2
2022-11-29T16:39:04.965Z,8.2
2022-11-29T16:44:04.992Z,8.1
2022-11-29T16:49:05.094Z,8.4
2022-11-29T16:54:15.388Z,8.3
2022-11-29T17:00:05.132Z,8
2022-11-29T17:05:05.202Z,7.8
2022-11-29T17:10:15.500Z,7.8
2022-11-29T17:16:04.994Z,8.2
2022-11-29T17:21:05.115Z,7.9
2022-11-29T17:26:05.199Z,7.9
2022-11-29T17:31:15.567Z,7.7
2022-11-29T17:37:05.006Z,7.8
2022-11-29T17:42:05.188Z,7.6
2022-11-29T17:47:15.268Z,7.2
2022-11-29T17:52:15.527Z,7.6
2022-11-29T17:58:07.911Z,7.6
2022-11-29T18:03:15.429Z,7.9
2022-11-29T18:08:15.466Z,7.6
2022-11-29T18:13:15.468Z,7.7
2022-11-29T18:19:05.185Z,7.9
2022-11-29T18:24:15.621Z,7.9
2022-11-29T18:30:05.194Z,8
2022-11-29T18:35:15.452Z,7.5
2022-11-29T18:40:15.491Z,7.6
2022-11-29T18:45:15.481Z,7.4
2022-11-29T18:51:05.168Z,7.4
2022-11-29T18:56:15.504Z,7.4
2022-11-29T19:02:05.174Z,7.4
2022-11-29T19:07:05.567Z,7.4
2022-11-29T19:12:15.501Z,7.6
2022-11-29T19:18:04.945Z,7.5
2022-11-29T19:23:05.021Z,7.7
2022-11-29T19:28:09.471Z,7.9
2022-11-29T19:33:05.162Z,7.7
2022-11-29T19:38:05.278Z,7.8
2022-11-29T19:43:15.533Z,7.9
2022-11-29T19:49:05.196Z,7.8
2022-11-29T19:54:15.530Z,7.8
2022-11-29T20:00:05.327Z,8
2022-11-29T20:05:15.483Z,7.8
2022-11-29T20:10:15.489Z,7.6
2022-11-29T20:16:05.306Z,7.8
2022-11-29T20:21:05.255Z,7.9
2022-11-29T20:26:15.455Z,7.9
2022-11-29T20:32:05.216Z,7.7
2022-11-29T20:37:15.453Z,7.8
2022-11-29T20:43:05.214Z,7.7
2022-11-29T20:48:15.320Z,7.5
2022-11-29T20:54:05.212Z,7.6
2022-11-29T20:59:15.265Z,7.5
2022-11-29T21:04:20.139Z,7.8
2022-11-29T21:09:25.775Z,7.6
2022-11-29T21:15:05.188Z,7.6
2022-11-29T21:20:15.470Z,7.8
2022-11-29T21:25:15.451Z,7.7
2022-11-29T21:31:05.257Z,7.7
2022-11-29T21:36:15.241Z,8
2022-11-29T21:41:15.438Z,7.9
2022-11-29T21:47:05.245Z,7.9
2022-11-29T21:52:05.790Z,7.8
2022-11-29T21:57:15.252Z,7.7
2022-11-29T22:03:05.060Z,7.6
2022-11-29T22:08:15.327Z,7.7
2022-11-29T22:14:05.040Z,8
2022-11-29T22:19:15.339Z,8.3
2022-11-29T22:25:05.001Z,7.7
2022-11-29T22:30:05.017Z,7.7
2022-11-29T22:35:15.229Z,8.1
2022-11-29T22:41:04.987Z,7.8
2022-11-29T22:46:15.297Z,7.5
2022-11-29T22:52:04.960Z,7.7
2022-11-29T22:57:04.991Z,7.9
2022-11-29T23:02:15.333Z,8.1
2022-11-29T23:07:15.348Z,7.9
2022-11-29T23:12:15.315Z,7.7
2022-11-29T23:17:15.320Z,8.1
2022-11-29T23:22:15.490Z,8.3
2022-11-29T23:28:05.189Z,8
2022-11-29T23:33:15.470Z,8
2022-11-29T23:38:15.482Z,8.1
2022-11-29T23:44:04.985Z,8.3
2022-11-29T23:49:15.453Z,8.2
2022-11-29T23:54:15.503Z,8.4
